sensor_id;sensor_type;location;lat;lon;timestamp;P1;durP1;ratioP1;P2;durP2;ratioP2
9918;SDS011;4998;51.024;13.828;2024-03-25T00:02:18;1.53;;;1.20;;
9918;SDS011;4998;51.024;13.828;2024-03-25T00:04:45;1.20;;;1.20;;
9918;SDS011;4998;51.024;13.828;2024-03-25T00:07:12;1.33;;;1.10;;
9918;SDS011;4998;51.024;13.828;2024-03-25T00:09:40;1.40;;;1.33;;
9918;SDS011;4998;51.024;13.828;2024-03-25T00:12:07;1.30;;;1.20;;
9918;SDS011;4998;51.024;13.828;2024-03-25T00:14:34;1.70;;;1.60;;
9918;SDS011;4998;51.024;13.828;2024-03-25T00:17:01;1.40;;;1.30;;
9918;SDS011;4998;51.024;13.828;2024-03-25T00:19:28;1.40;;;1.30;;
9918;SDS011;4998;51.024;13.828;2024-03-25T00:21:56;1.30;;;1.07;;
9918;SDS011;4998;51.024;13.828;2024-03-25T00:24:24;1.50;;;1.43;;
9918;SDS011;4998;51.024;13.828;2024-03-25T00:26:51;1.60;;;1.43;;
9918;SDS011;4998;51.024;13.828;2024-03-25T00:29:19;1.50;;;1.40;;
9918;SDS011;4998;51.024;13.828;2024-03-25T00:31:45;1.63;;;1.53;;
9918;SDS011;4998;51.024;13.828;2024-03-25T00:34:13;1.90;;;1.30;;
9918;SDS011;4998;51.024;13.828;2024-03-25T00:36:39;1.40;;;1.30;;
9918;SDS011;4998;51.024;13.828;2024-03-25T00:39:06;1.63;;;1.50;;
9918;SDS011;4998;51.024;13.828;2024-03-25T00:41:33;1.90;;;1.40;;
9918;SDS011;4998;51.024;13.828;2024-03-25T00:44:02;1.30;;;1.20;;
9918;SDS011;4998;51.024;13.828;2024-03-25T00:46:28;1.60;;;1.50;;
9918;SDS011;4998;51.024;13.828;2024-03-25T00:48:56;1.77;;;1.27;;
9918;SDS011;4998;51.024;13.828;2024-03-25T00:51:22;1.47;;;1.37;;
9918;SDS011;4998;51.024;13.828;2024-03-25T00:53:50;1.27;;;1.17;;
9918;SDS011;4998;51.024;13.828;2024-03-25T00:56:16;1.10;;;1.10;;
9918;SDS011;4998;51.024;13.828;2024-03-25T00:58:43;1.50;;;1.20;;
9918;SDS011;4998;51.024;13.828;2024-03-25T01:01:12;1.40;;;1.30;;
9918;SDS011;4998;51.024;13.828;2024-03-25T01:03:40;1.30;;;1.30;;
9918;SDS011;4998;51.024;13.828;2024-03-25T01:06:07;1.10;;;1.10;;
9918;SDS011;4998;51.024;13.828;2024-03-25T01:08:34;1.40;;;1.30;;
9918;SDS011;4998;51.024;13.828;2024-03-25T01:11:00;1.53;;;1.33;;
9918;SDS011;4998;51.024;13.828;2024-03-25T01:13:27;2.13;;;1.27;;
9918;SDS011;4998;51.024;13.828;2024-03-25T01:15:54;2.83;;;1.50;;
9918;SDS011;4998;51.024;13.828;2024-03-25T01:18:22;1.40;;;1.30;;
9918;SDS011;4998;51.024;13.828;2024-03-25T01:20:48;1.50;;;1.43;;
9918;SDS011;4998;51.024;13.828;2024-03-25T01:23:16;1.20;;;1.20;;
9918;SDS011;4998;51.024;13.828;2024-03-25T01:25:42;1.50;;;1.43;;
9918;SDS011;4998;51.024;13.828;2024-03-25T01:28:09;1.50;;;1.40;;
9918;SDS011;4998;51.024;13.828;2024-03-25T01:30:35;1.80;;;1.70;;
9918;SDS011;4998;51.024;13.828;2024-03-25T01:33:04;1.80;;;1.70;;
9918;SDS011;4998;51.024;13.828;2024-03-25T01:35:32;1.87;;;1.60;;
9918;SDS011;4998;51.024;13.828;2024-03-25T01:37:59;6.50;;;1.40;;
9918;SDS011;4998;51.024;13.828;2024-03-25T01:40:25;1.07;;;1.07;;
9918;SDS011;4998;51.024;13.828;2024-03-25T01:42:55;1.20;;;1.20;;
9918;SDS011;4998;51.024;13.828;2024-03-25T01:45:22;1.00;;;1.00;;
9918;SDS011;4998;51.024;13.828;2024-03-25T01:47:50;1.00;;;0.93;;
9918;SDS011;4998;51.024;13.828;2024-03-25T01:50:17;1.13;;;1.03;;
9918;SDS011;4998;51.024;13.828;2024-03-25T01:52:47;1.17;;;1.07;;
9918;SDS011;4998;51.024;13.828;2024-03-25T01:55:15;1.00;;;1.00;;
9918;SDS011;4998;51.024;13.828;2024-03-25T01:57:44;1.20;;;1.10;;
9918;SDS011;4998;51.024;13.828;2024-03-25T02:00:11;0.80;;;0.80;;
9918;SDS011;4998;51.024;13.828;2024-03-25T02:02:41;0.90;;;0.90;;
9918;SDS011;4998;51.024;13.828;2024-03-25T02:05:09;0.90;;;0.90;;
9918;SDS011;4998;51.024;13.828;2024-03-25T02:07:37;1.03;;;0.93;;
9918;SDS011;4998;51.024;13.828;2024-03-25T02:10:06;1.00;;;1.00;;
9918;SDS011;4998;51.024;13.828;2024-03-25T02:12:35;1.00;;;1.00;;
9918;SDS011;4998;51.024;13.828;2024-03-25T02:15:01;0.90;;;0.90;;
9918;SDS011;4998;51.024;13.828;2024-03-25T02:17:30;1.10;;;1.00;;
9918;SDS011;4998;51.024;13.828;2024-03-25T02:19:56;0.80;;;0.80;;
9918;SDS011;4998;51.024;13.828;2024-03-25T02:22:24;1.70;;;1.00;;
9918;SDS011;4998;51.024;13.828;2024-03-25T02:24:51;0.90;;;0.90;;
9918;SDS011;4998;51.024;13.828;2024-03-25T02:27:21;0.97;;;0.97;;
9918;SDS011;4998;51.024;13.828;2024-03-25T02:29:47;1.00;;;1.00;;
9918;SDS011;4998;51.024;13.828;2024-03-25T02:32:14;1.50;;;1.30;;
9918;SDS011;4998;51.024;13.828;2024-03-25T02:34:41;1.03;;;1.03;;
9918;SDS011;4998;51.024;13.828;2024-03-25T02:37:10;1.00;;;1.00;;
9918;SDS011;4998;51.024;13.828;2024-03-25T02:39:37;1.60;;;1.20;;
9918;SDS011;4998;51.024;13.828;2024-03-25T02:42:04;1.50;;;1.40;;
9918;SDS011;4998;51.024;13.828;2024-03-25T02:44:32;1.03;;;1.03;;
9918;SDS011;4998;51.024;13.828;2024-03-25T02:47:00;1.30;;;1.30;;
9918;SDS011;4998;51.024;13.828;2024-03-25T02:49:27;1.40;;;1.30;;
9918;SDS011;4998;51.024;13.828;2024-03-25T02:51:54;1.60;;;1.50;;
9918;SDS011;4998;51.024;13.828;2024-03-25T02:54:20;1.73;;;1.63;;
9918;SDS011;4998;51.024;13.828;2024-03-25T02:56:48;1.30;;;1.30;;
9918;SDS011;4998;51.024;13.828;2024-03-25T02:59:14;1.53;;;1.43;;
9918;SDS011;4998;51.024;13.828;2024-03-25T03:01:43;1.60;;;1.50;;
9918;SDS011;4998;51.024;13.828;2024-03-25T03:04:09;1.97;;;1.40;;
9918;SDS011;4998;51.024;13.828;2024-03-25T03:06:36;1.80;;;1.70;;
9918;SDS011;4998;51.024;13.828;2024-03-25T03:09:03;2.10;;;1.73;;
9918;SDS011;4998;51.024;13.828;2024-03-25T03:11:30;1.80;;;1.60;;
9918;SDS011;4998;51.024;13.828;2024-03-25T03:13:56;1.80;;;1.70;;
9918;SDS011;4998;51.024;13.828;2024-03-25T03:16:24;3.10;;;1.90;;
9918;SDS011;4998;51.024;13.828;2024-03-25T03:18:52;2.00;;;1.60;;
9918;SDS011;4998;51.024;13.828;2024-03-25T03:21:19;2.17;;;1.67;;
9918;SDS011;4998;51.024;13.828;2024-03-25T03:23:45;2.07;;;1.53;;
9918;SDS011;4998;51.024;13.828;2024-03-25T03:26:13;2.50;;;1.87;;
9918;SDS011;4998;51.024;13.828;2024-03-25T03:28:39;2.17;;;2.03;;
9918;SDS011;4998;51.024;13.828;2024-03-25T03:31:06;1.80;;;1.63;;
9918;SDS011;4998;51.024;13.828;2024-03-25T03:33:32;2.27;;;2.10;;
9918;SDS011;4998;51.024;13.828;2024-03-25T03:36:01;2.87;;;2.13;;
9918;SDS011;4998;51.024;13.828;2024-03-25T03:38:28;2.17;;;2.00;;
9918;SDS011;4998;51.024;13.828;2024-03-25T03:40:56;2.30;;;1.97;;
9918;SDS011;4998;51.024;13.828;2024-03-25T03:43:23;2.20;;;2.10;;
9918;SDS011;4998;51.024;13.828;2024-03-25T03:45:50;2.27;;;1.97;;
9918;SDS011;4998;51.024;13.828;2024-03-25T03:48:17;1.87;;;1.77;;
9918;SDS011;4998;51.024;13.828;2024-03-25T03:50:45;2.57;;;1.80;;
9918;SDS011;4998;51.024;13.828;2024-03-25T03:53:12;2.30;;;1.80;;
9918;SDS011;4998;51.024;13.828;2024-03-25T03:55:40;2.73;;;1.93;;
9918;SDS011;4998;51.024;13.828;2024-03-25T03:58:06;1.70;;;1.60;;
9918;SDS011;4998;51.024;13.828;2024-03-25T04:00:34;2.17;;;1.97;;
9918;SDS011;4998;51.024;13.828;2024-03-25T04:03:00;2.07;;;1.87;;
9918;SDS011;4998;51.024;13.828;2024-03-25T04:05:30;2.40;;;1.80;;
9918;SDS011;4998;51.024;13.828;2024-03-25T04:07:56;1.63;;;1.53;;
9918;SDS011;4998;51.024;13.828;2024-03-25T04:10:26;1.97;;;1.80;;
9918;SDS011;4998;51.024;13.828;2024-03-25T04:12:53;1.90;;;1.80;;
9918;SDS011;4998;51.024;13.828;2024-03-25T04:15:21;1.57;;;1.47;;
9918;SDS011;4998;51.024;13.828;2024-03-25T04:17:48;2.30;;;1.97;;
9918;SDS011;4998;51.024;13.828;2024-03-25T04:20:15;2.60;;;2.20;;
9918;SDS011;4998;51.024;13.828;2024-03-25T04:22:41;2.50;;;1.90;;
9918;SDS011;4998;51.024;13.828;2024-03-25T04:25:09;4.90;;;1.97;;
9918;SDS011;4998;51.024;13.828;2024-03-25T04:27:38;1.90;;;1.80;;
9918;SDS011;4998;51.024;13.828;2024-03-25T04:30:06;2.20;;;2.00;;
9918;SDS011;4998;51.024;13.828;2024-03-25T04:32:33;2.10;;;1.90;;
9918;SDS011;4998;51.024;13.828;2024-03-25T04:35:01;2.00;;;1.90;;
9918;SDS011;4998;51.024;13.828;2024-03-25T04:37:28;4.03;;;1.90;;
9918;SDS011;4998;51.024;13.828;2024-03-25T04:39:55;1.70;;;1.60;;
9918;SDS011;4998;51.024;13.828;2024-03-25T04:42:22;2.80;;;1.93;;
9918;SDS011;4998;51.024;13.828;2024-03-25T04:44:50;3.00;;;1.80;;
9918;SDS011;4998;51.024;13.828;2024-03-25T04:47:17;2.00;;;1.87;;
9918;SDS011;4998;51.024;13.828;2024-03-25T04:49:43;2.03;;;1.73;;
9918;SDS011;4998;51.024;13.828;2024-03-25T04:52:10;2.70;;;2.10;;
9918;SDS011;4998;51.024;13.828;2024-03-25T04:54:37;1.70;;;1.60;;
9918;SDS011;4998;51.024;13.828;2024-03-25T04:57:03;3.00;;;2.10;;
9918;SDS011;4998;51.024;13.828;2024-03-25T04:59:31;1.93;;;1.80;;
9918;SDS011;4998;51.024;13.828;2024-03-25T05:01:59;1.73;;;1.63;;
9918;SDS011;4998;51.024;13.828;2024-03-25T05:04:25;4.70;;;1.87;;
9918;SDS011;4998;51.024;13.828;2024-03-25T05:06:52;1.93;;;1.70;;
9918;SDS011;4998;51.024;13.828;2024-03-25T05:09:18;1.73;;;1.63;;
9918;SDS011;4998;51.024;13.828;2024-03-25T05:11:44;1.70;;;1.60;;
9918;SDS011;4998;51.024;13.828;2024-03-25T05:14:11;2.03;;;1.83;;
9918;SDS011;4998;51.024;13.828;2024-03-25T05:16:37;2.13;;;1.80;;
9918;SDS011;4998;51.024;13.828;2024-03-25T05:19:05;2.77;;;1.70;;
9918;SDS011;4998;51.024;13.828;2024-03-25T05:21:31;2.00;;;1.90;;
9918;SDS011;4998;51.024;13.828;2024-03-25T05:23:58;2.13;;;1.73;;
9918;SDS011;4998;51.024;13.828;2024-03-25T05:26:25;2.00;;;1.83;;
9918;SDS011;4998;51.024;13.828;2024-03-25T05:28:52;5.70;;;1.70;;
9918;SDS011;4998;51.024;13.828;2024-03-25T05:31:19;2.20;;;2.10;;
9918;SDS011;4998;51.024;13.828;2024-03-25T05:33:45;2.23;;;2.07;;
9918;SDS011;4998;51.024;13.828;2024-03-25T05:36:14;3.03;;;1.70;;
9918;SDS011;4998;51.024;13.828;2024-03-25T05:38:41;2.00;;;1.90;;
9918;SDS011;4998;51.024;13.828;2024-03-25T05:41:07;4.03;;;1.80;;
9918;SDS011;4998;51.024;13.828;2024-03-25T05:43:35;3.57;;;2.00;;
9918;SDS011;4998;51.024;13.828;2024-03-25T05:46:02;1.70;;;1.60;;
9918;SDS011;4998;51.024;13.828;2024-03-25T05:48:28;2.70;;;1.80;;
9918;SDS011;4998;51.024;13.828;2024-03-25T05:50:59;2.60;;;1.90;;
9918;SDS011;4998;51.024;13.828;2024-03-25T05:53:27;2.70;;;1.77;;
9918;SDS011;4998;51.024;13.828;2024-03-25T05:55:54;1.90;;;1.80;;
9918;SDS011;4998;51.024;13.828;2024-03-25T05:58:21;2.20;;;2.00;;
9918;SDS011;4998;51.024;13.828;2024-03-25T06:00:48;2.40;;;2.20;;
9918;SDS011;4998;51.024;13.828;2024-03-25T06:03:14;1.93;;;1.77;;
9918;SDS011;4998;51.024;13.828;2024-03-25T06:05:41;1.93;;;1.60;;
9918;SDS011;4998;51.024;13.828;2024-03-25T06:08:07;1.70;;;1.60;;
9918;SDS011;4998;51.024;13.828;2024-03-25T06:10:37;2.07;;;1.83;;
9918;SDS011;4998;51.024;13.828;2024-03-25T06:13:03;1.90;;;1.80;;
9918;SDS011;4998;51.024;13.828;2024-03-25T06:15:29;1.63;;;1.53;;
9918;SDS011;4998;51.024;13.828;2024-03-25T06:17:56;1.93;;;1.83;;
9918;SDS011;4998;51.024;13.828;2024-03-25T06:20:22;1.50;;;1.40;;
9918;SDS011;4998;51.024;13.828;2024-03-25T06:22:48;1.70;;;1.60;;
9918;SDS011;4998;51.024;13.828;2024-03-25T06:25:15;2.77;;;1.80;;
9918;SDS011;4998;51.024;13.828;2024-03-25T06:27:43;3.40;;;2.00;;
9918;SDS011;4998;51.024;13.828;2024-03-25T06:30:10;2.10;;;2.00;;
9918;SDS011;4998;51.024;13.828;2024-03-25T06:32:55;5.70;;;2.20;;
9918;SDS011;4998;51.024;13.828;2024-03-25T06:35:42;2.13;;;2.00;;
9918;SDS011;4998;51.024;13.828;2024-03-25T06:38:08;3.43;;;2.23;;
9918;SDS011;4998;51.024;13.828;2024-03-25T06:40:34;1.87;;;1.77;;
9918;SDS011;4998;51.024;13.828;2024-03-25T06:43:02;2.10;;;1.90;;
9918;SDS011;4998;51.024;13.828;2024-03-25T06:45:29;1.87;;;1.77;;
9918;SDS011;4998;51.024;13.828;2024-03-25T06:47:55;1.83;;;1.70;;
9918;SDS011;4998;51.024;13.828;2024-03-25T06:50:22;1.70;;;1.60;;
9918;SDS011;4998;51.024;13.828;2024-03-25T06:52:49;1.83;;;1.67;;
9918;SDS011;4998;51.024;13.828;2024-03-25T06:55:15;3.13;;;1.80;;
9918;SDS011;4998;51.024;13.828;2024-03-25T06:57:41;2.33;;;1.60;;
9918;SDS011;4998;51.024;13.828;2024-03-25T07:00:09;4.73;;;1.53;;
9918;SDS011;4998;51.024;13.828;2024-03-25T07:02:36;1.67;;;1.57;;
9918;SDS011;4998;51.024;13.828;2024-03-25T07:05:03;1.77;;;1.60;;
9918;SDS011;4998;51.024;13.828;2024-03-25T07:07:30;2.43;;;1.60;;
9918;SDS011;4998;51.024;13.828;2024-03-25T07:09:56;1.37;;;1.20;;
9918;SDS011;4998;51.024;13.828;2024-03-25T07:12:23;1.20;;;1.10;;
9918;SDS011;4998;51.024;13.828;2024-03-25T07:14:49;2.97;;;1.47;;
9918;SDS011;4998;51.024;13.828;2024-03-25T07:17:16;3.60;;;1.67;;
9918;SDS011;4998;51.024;13.828;2024-03-25T07:19:42;2.10;;;1.30;;
9918;SDS011;4998;51.024;13.828;2024-03-25T07:22:09;3.40;;;1.43;;
9918;SDS011;4998;51.024;13.828;2024-03-25T07:24:35;2.30;;;1.43;;
9918;SDS011;4998;51.024;13.828;2024-03-25T07:27:01;1.60;;;1.50;;
9918;SDS011;4998;51.024;13.828;2024-03-25T07:29:28;2.27;;;1.60;;
9918;SDS011;4998;51.024;13.828;2024-03-25T07:31:54;2.60;;;1.80;;
9918;SDS011;4998;51.024;13.828;2024-03-25T07:34:22;3.90;;;1.60;;
9918;SDS011;4998;51.024;13.828;2024-03-25T07:36:48;2.60;;;1.80;;
9918;SDS011;4998;51.024;13.828;2024-03-25T07:39:14;1.73;;;1.60;;
9918;SDS011;4998;51.024;13.828;2024-03-25T07:41:40;1.97;;;1.70;;
9918;SDS011;4998;51.024;13.828;2024-03-25T07:44:07;2.50;;;1.57;;
9918;SDS011;4998;51.024;13.828;2024-03-25T07:46:33;2.83;;;1.77;;
9918;SDS011;4998;51.024;13.828;2024-03-25T07:48:59;1.73;;;1.60;;
9918;SDS011;4998;51.024;13.828;2024-03-25T07:51:27;1.97;;;1.73;;
9918;SDS011;4998;51.024;13.828;2024-03-25T07:53:53;1.90;;;1.70;;
9918;SDS011;4998;51.024;13.828;2024-03-25T07:56:22;1.90;;;1.47;;
9918;SDS011;4998;51.024;13.828;2024-03-25T07:58:48;1.63;;;1.53;;
9918;SDS011;4998;51.024;13.828;2024-03-25T08:01:14;1.70;;;1.60;;
9918;SDS011;4998;51.024;13.828;2024-03-25T08:03:40;2.40;;;1.60;;
9918;SDS011;4998;51.024;13.828;2024-03-25T08:06:07;3.77;;;1.77;;
9918;SDS011;4998;51.024;13.828;2024-03-25T08:08:34;1.90;;;1.80;;
9918;SDS011;4998;51.024;13.828;2024-03-25T08:11:00;5.87;;;1.60;;
9918;SDS011;4998;51.024;13.828;2024-03-25T08:13:27;2.23;;;1.70;;
9918;SDS011;4998;51.024;13.828;2024-03-25T08:15:53;1.67;;;1.57;;
9918;SDS011;4998;51.024;13.828;2024-03-25T08:18:20;1.77;;;1.63;;
9918;SDS011;4998;51.024;13.828;2024-03-25T08:20:46;5.67;;;1.70;;
9918;SDS011;4998;51.024;13.828;2024-03-25T08:23:12;4.80;;;1.77;;
9918;SDS011;4998;51.024;13.828;2024-03-25T08:25:40;1.83;;;1.70;;
9918;SDS011;4998;51.024;13.828;2024-03-25T08:28:06;2.30;;;2.10;;
9918;SDS011;4998;51.024;13.828;2024-03-25T08:30:32;1.93;;;1.70;;
9918;SDS011;4998;51.024;13.828;2024-03-25T08:32:59;2.60;;;1.47;;
9918;SDS011;4998;51.024;13.828;2024-03-25T08:35:25;1.70;;;1.60;;
9918;SDS011;4998;51.024;13.828;2024-03-25T08:37:51;2.37;;;1.70;;
9918;SDS011;4998;51.024;13.828;2024-03-25T08:40:17;3.10;;;2.00;;
9918;SDS011;4998;51.024;13.828;2024-03-25T08:42:44;2.70;;;1.83;;
9918;SDS011;4998;51.024;13.828;2024-03-25T08:45:11;1.80;;;1.70;;
9918;SDS011;4998;51.024;13.828;2024-03-25T08:47:37;2.83;;;1.93;;
9918;SDS011;4998;51.024;13.828;2024-03-25T08:50:03;2.10;;;1.90;;
9918;SDS011;4998;51.024;13.828;2024-03-25T08:52:30;2.27;;;1.87;;
9918;SDS011;4998;51.024;13.828;2024-03-25T08:54:57;1.80;;;1.70;;
9918;SDS011;4998;51.024;13.828;2024-03-25T08:57:23;4.00;;;1.93;;
9918;SDS011;4998;51.024;13.828;2024-03-25T08:59:51;2.00;;;1.90;;
9918;SDS011;4998;51.024;13.828;2024-03-25T09:02:17;2.13;;;1.93;;
9918;SDS011;4998;51.024;13.828;2024-03-25T09:04:44;2.00;;;1.80;;
9918;SDS011;4998;51.024;13.828;2024-03-25T09:07:10;2.30;;;2.10;;
9918;SDS011;4998;51.024;13.828;2024-03-25T09:09:36;1.70;;;1.60;;
9918;SDS011;4998;51.024;13.828;2024-03-25T09:12:21;1.70;;;1.50;;
9918;SDS011;4998;51.024;13.828;2024-03-25T09:14:47;2.13;;;1.80;;
9918;SDS011;4998;51.024;13.828;2024-03-25T09:17:15;2.17;;;1.97;;
9918;SDS011;4998;51.024;13.828;2024-03-25T09:19:41;2.60;;;1.70;;
9918;SDS011;4998;51.024;13.828;2024-03-25T09:22:07;1.90;;;1.80;;
9918;SDS011;4998;51.024;13.828;2024-03-25T09:24:34;2.70;;;2.07;;
9918;SDS011;4998;51.024;13.828;2024-03-25T09:27:00;1.93;;;1.60;;
9918;SDS011;4998;51.024;13.828;2024-03-25T09:29:26;2.70;;;1.97;;
9918;SDS011;4998;51.024;13.828;2024-03-25T09:31:52;1.90;;;1.70;;
9918;SDS011;4998;51.024;13.828;2024-03-25T09:34:20;1.87;;;1.77;;
9918;SDS011;4998;51.024;13.828;2024-03-25T09:36:47;1.73;;;1.63;;
9918;SDS011;4998;51.024;13.828;2024-03-25T09:39:13;1.97;;;1.70;;
9918;SDS011;4998;51.024;13.828;2024-03-25T09:41:39;2.40;;;1.53;;
9918;SDS011;4998;51.024;13.828;2024-03-25T09:44:09;4.10;;;1.53;;
9918;SDS011;4998;51.024;13.828;2024-03-25T09:46:35;4.60;;;1.70;;
9918;SDS011;4998;51.024;13.828;2024-03-25T09:49:02;2.80;;;1.33;;
9918;SDS011;4998;51.024;13.828;2024-03-25T09:51:31;1.40;;;1.30;;
9918;SDS011;4998;51.024;13.828;2024-03-25T09:53:57;2.77;;;1.50;;
9918;SDS011;4998;51.024;13.828;2024-03-25T09:56:23;1.57;;;1.27;;
9918;SDS011;4998;51.024;13.828;2024-03-25T09:58:50;2.03;;;1.70;;
9918;SDS011;4998;51.024;13.828;2024-03-25T10:01:16;4.30;;;1.80;;
9918;SDS011;4998;51.024;13.828;2024-03-25T10:03:42;1.57;;;1.40;;
9918;SDS011;4998;51.024;13.828;2024-03-25T10:06:09;3.17;;;1.53;;
9918;SDS011;4998;51.024;13.828;2024-03-25T10:08:37;1.70;;;1.60;;
9918;SDS011;4998;51.024;13.828;2024-03-25T10:11:03;2.53;;;1.63;;
9918;SDS011;4998;51.024;13.828;2024-03-25T10:13:29;2.27;;;1.70;;
9918;SDS011;4998;51.024;13.828;2024-03-25T10:15:55;2.03;;;1.40;;
9918;SDS011;4998;51.024;13.828;2024-03-25T10:18:22;1.57;;;1.47;;
9918;SDS011;4998;51.024;13.828;2024-03-25T10:20:48;2.33;;;1.70;;
9918;SDS011;4998;51.024;13.828;2024-03-25T10:23:14;2.87;;;1.90;;
9918;SDS011;4998;51.024;13.828;2024-03-25T10:25:42;2.60;;;1.73;;
9918;SDS011;4998;51.024;13.828;2024-03-25T10:28:08;2.27;;;1.70;;
9918;SDS011;4998;51.024;13.828;2024-03-25T10:30:35;2.20;;;2.00;;
9918;SDS011;4998;51.024;13.828;2024-03-25T10:33:01;1.80;;;1.70;;
9918;SDS011;4998;51.024;13.828;2024-03-25T10:35:28;1.80;;;1.70;;
9918;SDS011;4998;51.024;13.828;2024-03-25T10:37:57;2.07;;;1.77;;
9918;SDS011;4998;51.024;13.828;2024-03-25T10:40:26;3.77;;;1.53;;
9918;SDS011;4998;51.024;13.828;2024-03-25T10:43:00;1.70;;;1.60;;
9918;SDS011;4998;51.024;13.828;2024-03-25T10:45:30;1.93;;;1.80;;
9918;SDS011;4998;51.024;13.828;2024-03-25T10:47:57;1.97;;;1.80;;
9918;SDS011;4998;51.024;13.828;2024-03-25T10:50:28;2.03;;;1.60;;
9918;SDS011;4998;51.024;13.828;2024-03-25T10:52:57;1.93;;;1.83;;
9918;SDS011;4998;51.024;13.828;2024-03-25T10:55:24;1.60;;;1.50;;
9918;SDS011;4998;51.024;13.828;2024-03-25T10:57:53;3.47;;;1.97;;
9918;SDS011;4998;51.024;13.828;2024-03-25T11:00:22;1.93;;;1.73;;
9918;SDS011;4998;51.024;13.828;2024-03-25T11:02:49;3.23;;;1.50;;
9918;SDS011;4998;51.024;13.828;2024-03-25T11:05:16;2.00;;;1.80;;
9918;SDS011;4998;51.024;13.828;2024-03-25T11:07:43;1.57;;;1.47;;
9918;SDS011;4998;51.024;13.828;2024-03-25T11:10:09;2.70;;;1.60;;
9918;SDS011;4998;51.024;13.828;2024-03-25T11:12:37;2.40;;;1.60;;
9918;SDS011;4998;51.024;13.828;2024-03-25T11:15:06;1.37;;;1.30;;
9918;SDS011;4998;51.024;13.828;2024-03-25T11:17:35;1.20;;;1.10;;
9918;SDS011;4998;51.024;13.828;2024-03-25T11:20:11;1.90;;;1.43;;
9918;SDS011;4998;51.024;13.828;2024-03-25T11:22:47;1.60;;;1.50;;
9918;SDS011;4998;51.024;13.828;2024-03-25T11:25:13;1.70;;;1.60;;
9918;SDS011;4998;51.024;13.828;2024-03-25T11:27:42;4.87;;;1.80;;
9918;SDS011;4998;51.024;13.828;2024-03-25T11:30:10;1.70;;;1.60;;
9918;SDS011;4998;51.024;13.828;2024-03-25T11:32:49;4.37;;;1.70;;
9918;SDS011;4998;51.024;13.828;2024-03-25T11:35:17;2.00;;;1.50;;
9918;SDS011;4998;51.024;13.828;2024-03-25T11:37:44;1.60;;;1.40;;
9918;SDS011;4998;51.024;13.828;2024-03-25T11:40:11;1.63;;;1.50;;
9918;SDS011;4998;51.024;13.828;2024-03-25T11:42:38;1.97;;;1.67;;
9918;SDS011;4998;51.024;13.828;2024-03-25T11:45:05;1.50;;;1.40;;
9918;SDS011;4998;51.024;13.828;2024-03-25T11:47:32;2.53;;;1.60;;
9918;SDS011;4998;51.024;13.828;2024-03-25T11:50:00;1.50;;;1.40;;
9918;SDS011;4998;51.024;13.828;2024-03-25T11:52:32;4.03;;;1.50;;
9918;SDS011;4998;51.024;13.828;2024-03-25T11:54:59;1.47;;;1.37;;
9918;SDS011;4998;51.024;13.828;2024-03-25T11:57:25;1.60;;;1.50;;
9918;SDS011;4998;51.024;13.828;2024-03-25T11:59:53;1.97;;;1.60;;
9918;SDS011;4998;51.024;13.828;2024-03-25T12:02:19;1.83;;;1.60;;
9918;SDS011;4998;51.024;13.828;2024-03-25T12:04:47;1.90;;;1.50;;
9918;SDS011;4998;51.024;13.828;2024-03-25T12:07:15;1.40;;;1.30;;
9918;SDS011;4998;51.024;13.828;2024-03-25T12:09:41;1.47;;;1.37;;
9918;SDS011;4998;51.024;13.828;2024-03-25T12:12:26;1.60;;;1.30;;
9918;SDS011;4998;51.024;13.828;2024-03-25T12:14:52;1.33;;;1.23;;
9918;SDS011;4998;51.024;13.828;2024-03-25T12:17:19;1.23;;;1.20;;
9918;SDS011;4998;51.024;13.828;2024-03-25T12:19:57;1.50;;;1.40;;
9918;SDS011;4998;51.024;13.828;2024-03-25T12:22:26;1.83;;;1.47;;
9918;SDS011;4998;51.024;13.828;2024-03-25T12:24:52;1.37;;;1.27;;
9918;SDS011;4998;51.024;13.828;2024-03-25T12:27:22;1.10;;;1.10;;
9918;SDS011;4998;51.024;13.828;2024-03-25T12:29:56;1.30;;;1.20;;
9918;SDS011;4998;51.024;13.828;2024-03-25T12:32:30;1.30;;;1.20;;
9918;SDS011;4998;51.024;13.828;2024-03-25T12:35:01;1.50;;;1.40;;
9918;SDS011;4998;51.024;13.828;2024-03-25T12:37:30;1.00;;;1.00;;
9918;SDS011;4998;51.024;13.828;2024-03-25T12:39:56;1.33;;;1.23;;
9918;SDS011;4998;51.024;13.828;2024-03-25T12:42:23;1.30;;;1.20;;
9918;SDS011;4998;51.024;13.828;2024-03-25T12:44:50;1.43;;;1.33;;
9918;SDS011;4998;51.024;13.828;2024-03-25T12:47:16;2.27;;;1.40;;
9918;SDS011;4998;51.024;13.828;2024-03-25T12:49:42;1.93;;;1.73;;
9918;SDS011;4998;51.024;13.828;2024-03-25T12:52:09;2.90;;;1.70;;
9918;SDS011;4998;51.024;13.828;2024-03-25T12:54:37;1.70;;;1.50;;
9918;SDS011;4998;51.024;13.828;2024-03-25T12:57:03;1.30;;;1.20;;
9918;SDS011;4998;51.024;13.828;2024-03-25T12:59:30;1.50;;;1.40;;
9918;SDS011;4998;51.024;13.828;2024-03-25T13:01:56;1.30;;;1.20;;
9918;SDS011;4998;51.024;13.828;2024-03-25T13:04:23;2.93;;;1.30;;
9918;SDS011;4998;51.024;13.828;2024-03-25T13:06:49;2.23;;;1.40;;
9918;SDS011;4998;51.024;13.828;2024-03-25T13:09:15;1.23;;;1.20;;
9918;SDS011;4998;51.024;13.828;2024-03-25T13:11:43;1.83;;;1.60;;
9918;SDS011;4998;51.024;13.828;2024-03-25T13:14:11;1.57;;;1.30;;
9918;SDS011;4998;51.024;13.828;2024-03-25T13:16:37;1.30;;;1.20;;
9918;SDS011;4998;51.024;13.828;2024-03-25T13:19:04;2.20;;;1.40;;
9918;SDS011;4998;51.024;13.828;2024-03-25T13:21:31;2.03;;;1.53;;
9918;SDS011;4998;51.024;13.828;2024-03-25T13:23:58;2.70;;;1.60;;
9918;SDS011;4998;51.024;13.828;2024-03-25T13:26:24;1.60;;;1.47;;
9918;SDS011;4998;51.024;13.828;2024-03-25T13:28:52;3.87;;;1.70;;
9918;SDS011;4998;51.024;13.828;2024-03-25T13:31:19;1.60;;;1.50;;
9918;SDS011;4998;51.024;13.828;2024-03-25T13:33:45;2.23;;;1.53;;
9918;SDS011;4998;51.024;13.828;2024-03-25T13:36:11;1.53;;;1.40;;
9918;SDS011;4998;51.024;13.828;2024-03-25T13:38:37;1.73;;;1.40;;
9918;SDS011;4998;51.024;13.828;2024-03-25T13:41:03;1.10;;;1.10;;
9918;SDS011;4998;51.024;13.828;2024-03-25T13:43:30;1.57;;;1.47;;
9918;SDS011;4998;51.024;13.828;2024-03-25T13:45:57;1.30;;;1.20;;
9918;SDS011;4998;51.024;13.828;2024-03-25T13:48:24;1.60;;;1.50;;
9918;SDS011;4998;51.024;13.828;2024-03-25T13:50:52;4.40;;;1.40;;
9918;SDS011;4998;51.024;13.828;2024-03-25T13:53:20;1.33;;;1.23;;
9918;SDS011;4998;51.024;13.828;2024-03-25T13:55:46;1.30;;;1.20;;
9918;SDS011;4998;51.024;13.828;2024-03-25T13:58:13;1.90;;;1.30;;
9918;SDS011;4998;51.024;13.828;2024-03-25T14:00:39;1.30;;;1.20;;
9918;SDS011;4998;51.024;13.828;2024-03-25T14:03:07;2.17;;;1.50;;
9918;SDS011;4998;51.024;13.828;2024-03-25T14:05:33;1.77;;;1.67;;
9918;SDS011;4998;51.024;13.828;2024-03-25T14:07:59;2.60;;;1.40;;
9918;SDS011;4998;51.024;13.828;2024-03-25T14:10:25;2.03;;;1.30;;
9918;SDS011;4998;51.024;13.828;2024-03-25T14:12:51;3.37;;;1.90;;
9918;SDS011;4998;51.024;13.828;2024-03-25T14:15:17;1.90;;;1.80;;
9918;SDS011;4998;51.024;13.828;2024-03-25T14:17:44;2.63;;;1.40;;
9918;SDS011;4998;51.024;13.828;2024-03-25T14:20:12;2.40;;;1.50;;
9918;SDS011;4998;51.024;13.828;2024-03-25T14:22:38;2.80;;;1.40;;
9918;SDS011;4998;51.024;13.828;2024-03-25T14:25:05;1.50;;;1.40;;
9918;SDS011;4998;51.024;13.828;2024-03-25T14:27:31;5.03;;;1.40;;
9918;SDS011;4998;51.024;13.828;2024-03-25T14:29:58;1.50;;;1.40;;
9918;SDS011;4998;51.024;13.828;2024-03-25T14:32:24;1.40;;;1.30;;
9918;SDS011;4998;51.024;13.828;2024-03-25T14:34:50;2.03;;;1.20;;
9918;SDS011;4998;51.024;13.828;2024-03-25T14:37:18;2.33;;;1.70;;
9918;SDS011;4998;51.024;13.828;2024-03-25T14:39:44;17.93;;;1.53;;
9918;SDS011;4998;51.024;13.828;2024-03-25T14:42:11;1.70;;;1.60;;
9918;SDS011;4998;51.024;13.828;2024-03-25T14:44:37;1.47;;;1.37;;
9918;SDS011;4998;51.024;13.828;2024-03-25T14:47:05;1.43;;;1.33;;
9918;SDS011;4998;51.024;13.828;2024-03-25T14:49:31;1.80;;;1.70;;
9918;SDS011;4998;51.024;13.828;2024-03-25T14:51:57;2.50;;;1.60;;
9918;SDS011;4998;51.024;13.828;2024-03-25T14:54:33;2.03;;;1.47;;
9918;SDS011;4998;51.024;13.828;2024-03-25T14:57:00;2.43;;;1.47;;
9918;SDS011;4998;51.024;13.828;2024-03-25T14:59:26;2.60;;;1.60;;
9918;SDS011;4998;51.024;13.828;2024-03-25T15:01:53;2.33;;;1.50;;